sensor_id;sensor_type;location;lat;lon;timestamp;temperature;humidity
17986;DHT22;9118;48.122;11.546;2023-04-06T00:00:55;3.10;96.80
17986;DHT22;9118;48.122;11.546;2023-04-06T00:03:22;3.20;97.20
17986;DHT22;9118;48.122;11.546;2023-04-06T00:05:52;3.20;97.30
17986;DHT22;9118;48.122;11.546;2023-04-06T00:08:19;3.20;97.60
17986;DHT22;9118;48.122;11.546;2023-04-06T00:10:49;3.30;97.80
17986;DHT22;9118;48.122;11.546;2023-04-06T00:13:16;3.30;97.40
17986;DHT22;9118;48.122;11.546;2023-04-06T00:15:43;3.30;97.60
17986;DHT22;9118;48.122;11.546;2023-04-06T00:18:11;3.30;98.40
17986;DHT22;9118;48.122;11.546;2023-04-06T00:20:38;2.40;98.40
17986;DHT22;9118;48.122;11.546;2023-04-06T00:23:07;3.40;98.70
17986;DHT22;9118;48.122;11.546;2023-04-06T00:25:34;3.40;98.20
17986;DHT22;9118;48.122;11.546;2023-04-06T00:28:01;3.20;98.20
17986;DHT22;9118;48.122;11.546;2023-04-06T00:30:29;3.30;98.50
17986;DHT22;9118;48.122;11.546;2023-04-06T00:32:56;3.30;99.10
17986;DHT22;9118;48.122;11.546;2023-04-06T00:35:23;3.20;99.10
17986;DHT22;9118;48.122;11.546;2023-04-06T00:37:50;3.20;99.30
17986;DHT22;9118;48.122;11.546;2023-04-06T00:40:18;3.20;99.30
17986;DHT22;9118;48.122;11.546;2023-04-06T00:42:46;3.20;99.50
17986;DHT22;9118;48.122;11.546;2023-04-06T00:45:13;3.20;99.90
17986;DHT22;9118;48.122;11.546;2023-04-06T00:47:40;3.20;99.90
17986;DHT22;9118;48.122;11.546;2023-04-06T00:50:08;3.20;99.90
17986;DHT22;9118;48.122;11.546;2023-04-06T00:52:35;3.20;99.90
17986;DHT22;9118;48.122;11.546;2023-04-06T00:55:03;3.20;99.90
17986;DHT22;9118;48.122;11.546;2023-04-06T00:57:31;3.20;99.90
17986;DHT22;9118;48.122;11.546;2023-04-06T00:59:59;3.20;99.90
17986;DHT22;9118;48.122;11.546;2023-04-06T01:02:27;3.20;99.90
17986;DHT22;9118;48.122;11.546;2023-04-06T01:04:55;3.20;99.90
17986;DHT22;9118;48.122;11.546;2023-04-06T01:07:22;3.20;99.90
17986;DHT22;9118;48.122;11.546;2023-04-06T01:09:50;3.20;99.90
17986;DHT22;9118;48.122;11.546;2023-04-06T01:12:17;3.20;99.90
17986;DHT22;9118;48.122;11.546;2023-04-06T01:14:45;3.10;99.90
17986;DHT22;9118;48.122;11.546;2023-04-06T01:17:13;3.10;99.90
17986;DHT22;9118;48.122;11.546;2023-04-06T01:19:40;3.10;99.90
17986;DHT22;9118;48.122;11.546;2023-04-06T01:22:07;3.00;99.90
17986;DHT22;9118;48.122;11.546;2023-04-06T01:24:35;3.00;99.90
17986;DHT22;9118;48.122;11.546;2023-04-06T01:27:04;4.20;99.90
17986;DHT22;9118;48.122;11.546;2023-04-06T01:29:31;2.90;99.90
17986;DHT22;9118;48.122;11.546;2023-04-06T01:31:58;2.90;99.90
17986;DHT22;9118;48.122;11.546;2023-04-06T01:34:25;2.80;99.90
17986;DHT22;9118;48.122;11.546;2023-04-06T01:36:52;2.80;99.90
17986;DHT22;9118;48.122;11.546;2023-04-06T01:39:20;2.80;99.90
17986;DHT22;9118;48.122;11.546;2023-04-06T01:41:48;2.70;99.90
17986;DHT22;9118;48.122;11.546;2023-04-06T01:44:17;2.70;99.90
17986;DHT22;9118;48.122;11.546;2023-04-06T01:46:44;2.70;99.90
17986;DHT22;9118;48.122;11.546;2023-04-06T01:49:12;2.40;99.90
17986;DHT22;9118;48.122;11.546;2023-04-06T01:51:39;3.30;99.90
17986;DHT22;9118;48.122;11.546;2023-04-06T01:54:06;2.70;99.90
17986;DHT22;9118;48.122;11.546;2023-04-06T01:56:34;2.70;99.90
17986;DHT22;9118;48.122;11.546;2023-04-06T01:59:02;2.70;99.90
17986;DHT22;9118;48.122;11.546;2023-04-06T02:01:29;3.00;99.90
17986;DHT22;9118;48.122;11.546;2023-04-06T02:03:56;2.70;99.90
17986;DHT22;9118;48.122;11.546;2023-04-06T02:06:23;2.70;99.90
17986;DHT22;9118;48.122;11.546;2023-04-06T02:08:50;2.70;99.90
17986;DHT22;9118;48.122;11.546;2023-04-06T02:11:18;2.70;99.90
17986;DHT22;9118;48.122;11.546;2023-04-06T02:13:45;2.60;99.90
17986;DHT22;9118;48.122;11.546;2023-04-06T02:16:13;2.60;99.90
17986;DHT22;9118;48.122;11.546;2023-04-06T02:18:41;2.60;99.90
17986;DHT22;9118;48.122;11.546;2023-04-06T02:21:09;2.60;99.90
17986;DHT22;9118;48.122;11.546;2023-04-06T02:23:36;2.60;99.90
17986;DHT22;9118;48.122;11.546;2023-04-06T02:26:03;2.60;99.90
17986;DHT22;9118;48.122;11.546;2023-04-06T02:28:30;2.50;99.90
17986;DHT22;9118;48.122;11.546;2023-04-06T02:30:58;2.50;99.90
17986;DHT22;9118;48.122;11.546;2023-04-06T02:33:26;2.70;99.90
17986;DHT22;9118;48.122;11.546;2023-04-06T02:35:53;2.60;99.90
17986;DHT22;9118;48.122;11.546;2023-04-06T02:38:20;2.60;99.90
17986;DHT22;9118;48.122;11.546;2023-04-06T02:40:48;2.60;99.90
17986;DHT22;9118;48.122;11.546;2023-04-06T02:43:15;2.60;99.90
17986;DHT22;9118;48.122;11.546;2023-04-06T02:45:43;2.60;99.90
17986;DHT22;9118;48.122;11.546;2023-04-06T02:48:10;2.60;99.90
17986;DHT22;9118;48.122;11.546;2023-04-06T02:50:38;2.60;99.90
17986;DHT22;9118;48.122;11.546;2023-04-06T02:53:06;2.60;99.90
17986;DHT22;9118;48.122;11.546;2023-04-06T02:55:33;2.50;99.90
17986;DHT22;9118;48.122;11.546;2023-04-06T02:58:00;2.60;99.90
17986;DHT22;9118;48.122;11.546;2023-04-06T03:00:27;2.50;99.90
17986;DHT22;9118;48.122;11.546;2023-04-06T03:02:54;2.60;99.90
17986;DHT22;9118;48.122;11.546;2023-04-06T03:05:21;2.60;99.90
17986;DHT22;9118;48.122;11.546;2023-04-06T03:07:50;2.50;99.90
17986;DHT22;9118;48.122;11.546;2023-04-06T03:10:17;2.50;99.90
17986;DHT22;9118;48.122;11.546;2023-04-06T03:12:44;3.40;99.90
17986;DHT22;9118;48.122;11.546;2023-04-06T03:15:11;2.50;99.90
17986;DHT22;9118;48.122;11.546;2023-04-06T03:17:39;2.50;99.90
17986;DHT22;9118;48.122;11.546;2023-04-06T03:20:06;2.50;99.90
17986;DHT22;9118;48.122;11.546;2023-04-06T03:22:34;2.50;99.90
17986;DHT22;9118;48.122;11.546;2023-04-06T03:25:03;2.60;99.90
17986;DHT22;9118;48.122;11.546;2023-04-06T03:27:31;2.50;99.90
17986;DHT22;9118;48.122;11.546;2023-04-06T03:29:58;2.50;99.90
17986;DHT22;9118;48.122;11.546;2023-04-06T03:32:25;2.40;99.90
17986;DHT22;9118;48.122;11.546;2023-04-06T03:34:53;2.00;99.90
17986;DHT22;9118;48.122;11.546;2023-04-06T03:37:20;2.40;99.90
17986;DHT22;9118;48.122;11.546;2023-04-06T03:39:47;2.40;99.90
17986;DHT22;9118;48.122;11.546;2023-04-06T03:42:15;2.40;99.90
17986;DHT22;9118;48.122;11.546;2023-04-06T03:44:43;2.30;99.90
17986;DHT22;9118;48.122;11.546;2023-04-06T03:47:10;2.30;99.90
17986;DHT22;9118;48.122;11.546;2023-04-06T03:49:37;2.10;99.90
17986;DHT22;9118;48.122;11.546;2023-04-06T03:52:04;2.00;99.90
17986;DHT22;9118;48.122;11.546;2023-04-06T03:54:31;1.90;99.90
17986;DHT22;9118;48.122;11.546;2023-04-06T03:57:02;1.90;99.90
17986;DHT22;9118;48.122;11.546;2023-04-06T03:59:30;2.00;99.90
17986;DHT22;9118;48.122;11.546;2023-04-06T04:01:57;2.00;99.90
17986;DHT22;9118;48.122;11.546;2023-04-06T04:04:24;2.10;99.90
17986;DHT22;9118;48.122;11.546;2023-04-06T04:06:52;1.80;99.90
17986;DHT22;9118;48.122;11.546;2023-04-06T04:09:19;2.30;99.90
17986;DHT22;9118;48.122;11.546;2023-04-06T04:11:46;1.80;99.90
17986;DHT22;9118;48.122;11.546;2023-04-06T04:14:13;2.20;99.90
17986;DHT22;9118;48.122;11.546;2023-04-06T04:16:42;2.10;99.90
17986;DHT22;9118;48.122;11.546;2023-04-06T04:19:10;2.30;99.90
17986;DHT22;9118;48.122;11.546;2023-04-06T04:21:42;2.20;99.90
17986;DHT22;9118;48.122;11.546;2023-04-06T04:24:10;2.30;99.90
17986;DHT22;9118;48.122;11.546;2023-04-06T04:26:38;1.70;99.90
17986;DHT22;9118;48.122;11.546;2023-04-06T04:29:08;2.30;99.90
17986;DHT22;9118;48.122;11.546;2023-04-06T04:31:35;2.20;99.90
17986;DHT22;9118;48.122;11.546;2023-04-06T04:34:03;2.20;99.90
17986;DHT22;9118;48.122;11.546;2023-04-06T04:36:32;2.60;99.90
17986;DHT22;9118;48.122;11.546;2023-04-06T04:39:01;2.20;99.90
17986;DHT22;9118;48.122;11.546;2023-04-06T04:41:29;2.40;99.90
17986;DHT22;9118;48.122;11.546;2023-04-06T04:43:57;2.20;99.90
17986;DHT22;9118;48.122;11.546;2023-04-06T04:46:24;2.20;99.90
17986;DHT22;9118;48.122;11.546;2023-04-06T04:48:51;2.20;99.90
17986;DHT22;9118;48.122;11.546;2023-04-06T04:51:21;2.20;99.90
17986;DHT22;9118;48.122;11.546;2023-04-06T04:53:50;2.20;99.90
17986;DHT22;9118;48.122;11.546;2023-04-06T04:56:18;2.30;99.90
17986;DHT22;9118;48.122;11.546;2023-04-06T04:58:45;2.70;99.90
17986;DHT22;9118;48.122;11.546;2023-04-06T05:01:12;2.20;99.90
17986;DHT22;9118;48.122;11.546;2023-04-06T05:03:40;2.20;99.90
17986;DHT22;9118;48.122;11.546;2023-04-06T05:06:07;2.20;99.90
17986;DHT22;9118;48.122;11.546;2023-04-06T05:08:36;2.30;99.90
17986;DHT22;9118;48.122;11.546;2023-04-06T05:11:03;2.70;99.90
17986;DHT22;9118;48.122;11.546;2023-04-06T05:13:31;2.30;99.90
17986;DHT22;9118;48.122;11.546;2023-04-06T05:15:58;2.30;99.90
17986;DHT22;9118;48.122;11.546;2023-04-06T05:18:27;2.40;99.90
17986;DHT22;9118;48.122;11.546;2023-04-06T05:20:55;2.50;99.90
17986;DHT22;9118;48.122;11.546;2023-04-06T05:23:22;2.60;99.90
17986;DHT22;9118;48.122;11.546;2023-04-06T05:25:51;2.60;99.90
17986;DHT22;9118;48.122;11.546;2023-04-06T05:28:19;2.60;99.90
17986;DHT22;9118;48.122;11.546;2023-04-06T05:30:46;2.60;99.90
17986;DHT22;9118;48.122;11.546;2023-04-06T05:33:14;1.10;99.90
17986;DHT22;9118;48.122;11.546;2023-04-06T05:35:42;2.70;99.90
17986;DHT22;9118;48.122;11.546;2023-04-06T05:38:09;2.60;99.90
17986;DHT22;9118;48.122;11.546;2023-04-06T05:40:36;2.60;99.90
17986;DHT22;9118;48.122;11.546;2023-04-06T05:43:08;3.20;99.90
17986;DHT22;9118;48.122;11.546;2023-04-06T05:45:36;3.60;99.90
17986;DHT22;9118;48.122;11.546;2023-04-06T05:48:04;2.60;99.90
17986;DHT22;9118;48.122;11.546;2023-04-06T05:50:31;2.60;99.90
17986;DHT22;9118;48.122;11.546;2023-04-06T05:52:58;2.70;99.90
17986;DHT22;9118;48.122;11.546;2023-04-06T05:55:25;2.60;99.90
17986;DHT22;9118;48.122;11.546;2023-04-06T05:57:53;2.60;99.90
17986;DHT22;9118;48.122;11.546;2023-04-06T06:00:22;2.60;99.90
17986;DHT22;9118;48.122;11.546;2023-04-06T06:02:50;2.60;99.90
17986;DHT22;9118;48.122;11.546;2023-04-06T06:05:17;2.50;99.90
17986;DHT22;9118;48.122;11.546;2023-04-06T06:07:44;2.60;99.90
17986;DHT22;9118;48.122;11.546;2023-04-06T06:10:12;2.60;99.90
17986;DHT22;9118;48.122;11.546;2023-04-06T06:12:39;2.70;99.90
17986;DHT22;9118;48.122;11.546;2023-04-06T06:15:10;2.80;99.90
17986;DHT22;9118;48.122;11.546;2023-04-06T06:17:40;2.80;99.90
17986;DHT22;9118;48.122;11.546;2023-04-06T06:20:11;3.00;99.90
17986;DHT22;9118;48.122;11.546;2023-04-06T06:22:52;3.10;99.90
17986;DHT22;9118;48.122;11.546;2023-04-06T06:25:20;3.20;99.90
17986;DHT22;9118;48.122;11.546;2023-04-06T06:27:50;3.20;99.90
17986;DHT22;9118;48.122;11.546;2023-04-06T06:30:20;3.40;99.90
17986;DHT22;9118;48.122;11.546;2023-04-06T06:32:50;3.50;99.90
17986;DHT22;9118;48.122;11.546;2023-04-06T06:35:25;3.50;99.90
17986;DHT22;9118;48.122;11.546;2023-04-06T06:37:53;2.00;99.90
17986;DHT22;9118;48.122;11.546;2023-04-06T06:40:21;1.80;99.90
17986;DHT22;9118;48.122;11.546;2023-04-06T06:42:50;5.50;99.90
17986;DHT22;9118;48.122;11.546;2023-04-06T06:45:18;4.00;99.90
17986;DHT22;9118;48.122;11.546;2023-04-06T06:47:49;2.50;99.90
17986;DHT22;9118;48.122;11.546;2023-04-06T06:50:31;6.00;99.90
17986;DHT22;9118;48.122;11.546;2023-04-06T06:53:12;4.20;99.90
17986;DHT22;9118;48.122;11.546;2023-04-06T06:55:41;4.20;99.90
17986;DHT22;9118;48.122;11.546;2023-04-06T06:58:10;4.30;99.90
17986;DHT22;9118;48.122;11.546;2023-04-06T07:00:40;4.80;99.90
17986;DHT22;9118;48.122;11.546;2023-04-06T07:03:26;4.80;99.90
17986;DHT22;9118;48.122;11.546;2023-04-06T07:05:59;4.90;99.90
17986;DHT22;9118;48.122;11.546;2023-04-06T07:08:28;5.30;99.90
17986;DHT22;9118;48.122;11.546;2023-04-06T07:10:56;5.50;99.90
17986;DHT22;9118;48.122;11.546;2023-04-06T07:13:29;5.60;99.90
17986;DHT22;9118;48.122;11.546;2023-04-06T07:15:57;5.50;99.90
17986;DHT22;9118;48.122;11.546;2023-04-06T07:18:38;5.50;99.90
17986;DHT22;9118;48.122;11.546;2023-04-06T07:21:10;5.70;99.90
17986;DHT22;9118;48.122;11.546;2023-04-06T07:23:39;7.10;99.90
17986;DHT22;9118;48.122;11.546;2023-04-06T07:26:07;6.30;99.90
17986;DHT22;9118;48.122;11.546;2023-04-06T07:28:36;5.60;99.90
17986;DHT22;9118;48.122;11.546;2023-04-06T07:31:05;5.70;99.90
17986;DHT22;9118;48.122;11.546;2023-04-06T07:33:37;4.90;99.90
17986;DHT22;9118;48.122;11.546;2023-04-06T07:36:08;5.50;99.90
17986;DHT22;9118;48.122;11.546;2023-04-06T07:38:49;5.40;99.90
17986;DHT22;9118;48.122;11.546;2023-04-06T07:41:29;5.60;99.90
17986;DHT22;9118;48.122;11.546;2023-04-06T07:43:56;5.90;99.90
17986;DHT22;9118;48.122;11.546;2023-04-06T07:46:26;6.00;99.90
17986;DHT22;9118;48.122;11.546;2023-04-06T07:49:20;7.10;99.90
17986;DHT22;9118;48.122;11.546;2023-04-06T07:51:51;5.60;99.90
17986;DHT22;9118;48.122;11.546;2023-04-06T07:54:19;6.00;99.90
17986;DHT22;9118;48.122;11.546;2023-04-06T07:56:47;6.90;99.90
17986;DHT22;9118;48.122;11.546;2023-04-06T07:59:16;6.40;99.90
17986;DHT22;9118;48.122;11.546;2023-04-06T08:01:45;4.30;99.90
17986;DHT22;9118;48.122;11.546;2023-04-06T08:04:16;6.50;99.90
17986;DHT22;9118;48.122;11.546;2023-04-06T08:06:48;6.80;99.90
17986;DHT22;9118;48.122;11.546;2023-04-06T08:09:19;7.80;99.90
17986;DHT22;9118;48.122;11.546;2023-04-06T08:11:47;6.20;99.90
17986;DHT22;9118;48.122;11.546;2023-04-06T08:14:14;7.90;99.90
17986;DHT22;9118;48.122;11.546;2023-04-06T08:16:42;7.30;99.90
17986;DHT22;9118;48.122;11.546;2023-04-06T08:19:14;7.30;99.90
17986;DHT22;9118;48.122;11.546;2023-04-06T08:21:53;7.40;99.90
17986;DHT22;9118;48.122;11.546;2023-04-06T08:24:35;7.70;99.90
17986;DHT22;9118;48.122;11.546;2023-04-06T08:27:03;7.20;99.80
17986;DHT22;9118;48.122;11.546;2023-04-06T08:29:52;8.60;99.30
17986;DHT22;9118;48.122;11.546;2023-04-06T08:32:20;8.20;99.90
17986;DHT22;9118;48.122;11.546;2023-04-06T08:34:48;7.00;99.90
17986;DHT22;9118;48.122;11.546;2023-04-06T08:37:25;7.90;99.00
17986;DHT22;9118;48.122;11.546;2023-04-06T08:39:57;8.00;98.20
17986;DHT22;9118;48.122;11.546;2023-04-06T08:42:25;7.70;97.40
17986;DHT22;9118;48.122;11.546;2023-04-06T08:45:00;7.60;97.50
17986;DHT22;9118;48.122;11.546;2023-04-06T08:47:28;7.80;98.80
17986;DHT22;9118;48.122;11.546;2023-04-06T08:49:56;7.70;98.80
17986;DHT22;9118;48.122;11.546;2023-04-06T08:52:27;9.70;98.80
17986;DHT22;9118;48.122;11.546;2023-04-06T08:54:59;7.90;97.30
17986;DHT22;9118;48.122;11.546;2023-04-06T08:57:27;8.00;96.40
17986;DHT22;9118;48.122;11.546;2023-04-06T08:59:56;8.10;97.10
17986;DHT22;9118;48.122;11.546;2023-04-06T09:02:25;8.20;96.10
17986;DHT22;9118;48.122;11.546;2023-04-06T09:04:54;8.40;96.50
17986;DHT22;9118;48.122;11.546;2023-04-06T09:07:21;8.80;96.70
17986;DHT22;9118;48.122;11.546;2023-04-06T09:09:53;8.80;96.80
17986;DHT22;9118;48.122;11.546;2023-04-06T09:12:25;8.40;97.40
17986;DHT22;9118;48.122;11.546;2023-04-06T09:14:55;8.60;94.70
17986;DHT22;9118;48.122;11.546;2023-04-06T09:17:25;8.40;94.20
17986;DHT22;9118;48.122;11.546;2023-04-06T09:20:03;9.30;94.40
17986;DHT22;9118;48.122;11.546;2023-04-06T09:22:36;8.60;94.70
17986;DHT22;9118;48.122;11.546;2023-04-06T09:25:17;9.30;96.80
17986;DHT22;9118;48.122;11.546;2023-04-06T09:27:45;10.70;94.80
17986;DHT22;9118;48.122;11.546;2023-04-06T09:30:13;8.90;95.60
17986;DHT22;9118;48.122;11.546;2023-04-06T09:32:46;8.60;95.00
17986;DHT22;9118;48.122;11.546;2023-04-06T09:35:18;9.30;95.00
17986;DHT22;9118;48.122;11.546;2023-04-06T09:37:48;8.90;93.60
17986;DHT22;9118;48.122;11.546;2023-04-06T09:40:31;9.00;92.60
17986;DHT22;9118;48.122;11.546;2023-04-06T09:42:59;9.10;94.90
17986;DHT22;9118;48.122;11.546;2023-04-06T09:45:29;8.90;95.20
17986;DHT22;9118;48.122;11.546;2023-04-06T09:47:57;8.80;94.20
17986;DHT22;9118;48.122;11.546;2023-04-06T09:50:26;8.90;95.10
17986;DHT22;9118;48.122;11.546;2023-04-06T09:52:57;9.30;96.00
17986;DHT22;9118;48.122;11.546;2023-04-06T09:55:36;9.30;95.90
17986;DHT22;9118;48.122;11.546;2023-04-06T09:58:09;9.50;95.20
17986;DHT22;9118;48.122;11.546;2023-04-06T10:00:44;9.30;93.90
17986;DHT22;9118;48.122;11.546;2023-04-06T10:03:28;8.70;95.20
17986;DHT22;9118;48.122;11.546;2023-04-06T10:06:02;8.60;93.70
17986;DHT22;9118;48.122;11.546;2023-04-06T10:08:33;8.40;94.70
17986;DHT22;9118;48.122;11.546;2023-04-06T10:11:23;8.50;94.50
17986;DHT22;9118;48.122;11.546;2023-04-06T10:13:53;7.90;95.20
17986;DHT22;9118;48.122;11.546;2023-04-06T10:16:24;9.30;93.50
17986;DHT22;9118;48.122;11.546;2023-04-06T10:18:58;10.50;94.60
17986;DHT22;9118;48.122;11.546;2023-04-06T10:21:31;9.90;94.80
17986;DHT22;9118;48.122;11.546;2023-04-06T10:24:12;10.10;93.30
17986;DHT22;9118;48.122;11.546;2023-04-06T10:27:13;10.50;92.70
17986;DHT22;9118;48.122;11.546;2023-04-06T10:29:43;9.10;90.40
17986;DHT22;9118;48.122;11.546;2023-04-06T10:32:36;9.30;90.00
17986;DHT22;9118;48.122;11.546;2023-04-06T10:35:17;8.80;92.70
17986;DHT22;9118;48.122;11.546;2023-04-06T10:37:48;9.60;92.20
17986;DHT22;9118;48.122;11.546;2023-04-06T10:40:25;9.80;91.00
17986;DHT22;9118;48.122;11.546;2023-04-06T10:43:06;7.20;91.40
17986;DHT22;9118;48.122;11.546;2023-04-06T10:45:34;9.10;91.80
17986;DHT22;9118;48.122;11.546;2023-04-06T10:48:12;10.00;92.60
17986;DHT22;9118;48.122;11.546;2023-04-06T10:50:59;10.00;93.10
17986;DHT22;9118;48.122;11.546;2023-04-06T10:53:41;11.20;91.40
17986;DHT22;9118;48.122;11.546;2023-04-06T10:56:16;9.80;91.70
17986;DHT22;9118;48.122;11.546;2023-04-06T10:58:49;11.20;91.20
17986;DHT22;9118;48.122;11.546;2023-04-06T11:01:18;9.60;90.60
17986;DHT22;9118;48.122;11.546;2023-04-06T11:03:47;9.80;91.00
17986;DHT22;9118;48.122;11.546;2023-04-06T11:06:19;10.40;90.50
17986;DHT22;9118;48.122;11.546;2023-04-06T11:08:46;10.20;89.80
17986;DHT22;9118;48.122;11.546;2023-04-06T11:11:15;10.10;90.00
17986;DHT22;9118;48.122;11.546;2023-04-06T11:13:45;10.00;89.60
17986;DHT22;9118;48.122;11.546;2023-04-06T11:16:15;8.10;89.30
17986;DHT22;9118;48.122;11.546;2023-04-06T11:18:52;9.50;90.30
17986;DHT22;9118;48.122;11.546;2023-04-06T11:21:31;9.60;89.40
17986;DHT22;9118;48.122;11.546;2023-04-06T11:24:09;9.60;91.20
17986;DHT22;9118;48.122;11.546;2023-04-06T11:26:42;9.80;90.70
17986;DHT22;9118;48.122;11.546;2023-04-06T11:29:12;10.00;89.20
17986;DHT22;9118;48.122;11.546;2023-04-06T11:31:42;10.40;89.40
17986;DHT22;9118;48.122;11.546;2023-04-06T11:34:11;10.00;89.20
17986;DHT22;9118;48.122;11.546;2023-04-06T11:36:41;10.90;88.50
17986;DHT22;9118;48.122;11.546;2023-04-06T11:39:09;11.00;87.70
17986;DHT22;9118;48.122;11.546;2023-04-06T11:41:36;10.70;86.80
17986;DHT22;9118;48.122;11.546;2023-04-06T11:44:05;10.50;87.60
17986;DHT22;9118;48.122;11.546;2023-04-06T11:46:33;10.70;88.90
17986;DHT22;9118;48.122;11.546;2023-04-06T11:49:02;10.50;87.30
17986;DHT22;9118;48.122;11.546;2023-04-06T11:51:30;10.30;88.20
17986;DHT22;9118;48.122;11.546;2023-04-06T11:53:57;9.80;89.70
17986;DHT22;9118;48.122;11.546;2023-04-06T11:56:26;9.30;88.60
17986;DHT22;9118;48.122;11.546;2023-04-06T11:58:55;9.80;88.20
17986;DHT22;9118;48.122;11.546;2023-04-06T12:01:25;10.00;87.70
17986;DHT22;9118;48.122;11.546;2023-04-06T12:03:52;10.00;87.40
17986;DHT22;9118;48.122;11.546;2023-04-06T12:06:26;10.40;87.40
17986;DHT22;9118;48.122;11.546;2023-04-06T12:08:53;10.50;87.10
17986;DHT22;9118;48.122;11.546;2023-04-06T12:11:20;10.40;89.30
17986;DHT22;9118;48.122;11.546;2023-04-06T12:13:48;10.20;89.70
17986;DHT22;9118;48.122;11.546;2023-04-06T12:16:16;10.40;89.10
17986;DHT22;9118;48.122;11.546;2023-04-06T12:18:44;10.40;86.80
17986;DHT22;9118;48.122;11.546;2023-04-06T12:21:11;10.60;87.40
17986;DHT22;9118;48.122;11.546;2023-04-06T12:23:45;11.00;85.50
17986;DHT22;9118;48.122;11.546;2023-04-06T12:26:13;11.10;84.10
17986;DHT22;9118;48.122;11.546;2023-04-06T12:28:40;10.80;83.50
17986;DHT22;9118;48.122;11.546;2023-04-06T12:31:15;10.30;85.80
17986;DHT22;9118;48.122;11.546;2023-04-06T12:33:43;10.60;85.60
17986;DHT22;9118;48.122;11.546;2023-04-06T12:36:14;10.70;85.30
17986;DHT22;9118;48.122;11.546;2023-04-06T12:38:56;11.10;84.70
17986;DHT22;9118;48.122;11.546;2023-04-06T12:41:23;11.30;87.70
17986;DHT22;9118;48.122;11.546;2023-04-06T12:43:50;9.90;83.00
17986;DHT22;9118;48.122;11.546;2023-04-06T12:46:18;11.80;84.40
17986;DHT22;9118;48.122;11.546;2023-04-06T12:48:46;11.40;86.50
17986;DHT22;9118;48.122;11.546;2023-04-06T12:51:19;12.60;87.10
17986;DHT22;9118;48.122;11.546;2023-04-06T12:53:48;11.10;84.80
17986;DHT22;9118;48.122;11.546;2023-04-06T12:56:17;12.00;86.40
17986;DHT22;9118;48.122;11.546;2023-04-06T12:58:44;11.40;82.60
17986;DHT22;9118;48.122;11.546;2023-04-06T13:01:12;11.60;84.00
17986;DHT22;9118;48.122;11.546;2023-04-06T13:03:40;11.70;81.90
17986;DHT22;9118;48.122;11.546;2023-04-06T13:06:08;11.60;83.00
17986;DHT22;9118;48.122;11.546;2023-04-06T13:08:36;11.10;88.00
17986;DHT22;9118;48.122;11.546;2023-04-06T13:11:06;10.90;84.30
17986;DHT22;9118;48.122;11.546;2023-04-06T13:13:36;10.80;84.60
17986;DHT22;9118;48.122;11.546;2023-04-06T13:16:05;11.20;83.50
17986;DHT22;9118;48.122;11.546;2023-04-06T13:18:33;11.70;84.40
17986;DHT22;9118;48.122;11.546;2023-04-06T13:21:04;10.60;84.00
17986;DHT22;9118;48.122;11.546;2023-04-06T13:23:32;11.00;85.40
17986;DHT22;9118;48.122;11.546;2023-04-06T13:26:01;11.50;89.10
17986;DHT22;9118;48.122;11.546;2023-04-06T13:28:30;11.90;84.00
17986;DHT22;9118;48.122;11.546;2023-04-06T13:30:58;13.30;84.00
17986;DHT22;9118;48.122;11.546;2023-04-06T13:33:26;12.30;83.30
17986;DHT22;9118;48.122;11.546;2023-04-06T13:35:54;12.50;86.20
17986;DHT22;9118;48.122;11.546;2023-04-06T13:38:21;12.10;80.30
17986;DHT22;9118;48.122;11.546;2023-04-06T13:40:50;11.80;80.90
17986;DHT22;9118;48.122;11.546;2023-04-06T13:43:17;12.00;81.60
17986;DHT22;9118;48.122;11.546;2023-04-06T13:45:52;11.70;82.70
17986;DHT22;9118;48.122;11.546;2023-04-06T13:48:22;11.30;83.40
17986;DHT22;9118;48.122;11.546;2023-04-06T13:50:51;10.00;85.80
17986;DHT22;9118;48.122;11.546;2023-04-06T13:53:32;11.50;82.80
17986;DHT22;9118;48.122;11.546;2023-04-06T13:56:00;12.50;82.10
17986;DHT22;9118;48.122;11.546;2023-04-06T13:58:27;12.10;83.60
17986;DHT22;9118;48.122;11.546;2023-04-06T14:01:02;9.80;84.80
17986;DHT22;9118;48.122;11.546;2023-04-06T14:03:33;11.50;80.80
17986;DHT22;9118;48.122;11.546;2023-04-06T14:06:01;11.80;79.40
17986;DHT22;9118;48.122;11.546;2023-04-06T14:08:36;13.20;84.40
17986;DHT22;9118;48.122;11.546;2023-04-06T14:11:06;11.50;83.10
17986;DHT22;9118;48.122;11.546;2023-04-06T14:13:34;11.50;82.10
17986;DHT22;9118;48.122;11.546;2023-04-06T14:16:06;11.00;81.80
17986;DHT22;9118;48.122;11.546;2023-04-06T14:18:36;11.70;84.30
17986;DHT22;9118;48.122;11.546;2023-04-06T14:21:04;12.00;85.20
17986;DHT22;9118;48.122;11.546;2023-04-06T14:23:34;11.60;82.20
17986;DHT22;9118;48.122;11.546;2023-04-06T14:26:04;11.30;80.30
17986;DHT22;9118;48.122;11.546;2023-04-06T14:28:36;10.80;83.10
17986;DHT22;9118;48.122;11.546;2023-04-06T14:31:24;11.90;82.90
17986;DHT22;9118;48.122;11.546;2023-04-06T14:33:54;11.80;81.20
17986;DHT22;9118;48.122;11.546;2023-04-06T14:36:21;11.80;79.80
17986;DHT22;9118;48.122;11.546;2023-04-06T14:38:53;11.90;83.40
17986;DHT22;9118;48.122;11.546;2023-04-06T14:41:22;11.80;80.00
17986;DHT22;9118;48.122;11.546;2023-04-06T14:43:52;12.50;83.70
17986;DHT22;9118;48.122;11.546;2023-04-06T14:46:22;11.40;80.30
17986;DHT22;9118;48.122;11.546;2023-04-06T14:48:55;11.30;80.60
17986;DHT22;9118;48.122;11.546;2023-04-06T14:51:24;11.20;85.00
17986;DHT22;9118;48.122;11.546;2023-04-06T14:53:58;11.40;82.10
17986;DHT22;9118;48.122;11.546;2023-04-06T14:56:40;12.20;84.00
17986;DHT22;9118;48.122;11.546;2023-04-06T14:59:22;11.10;86.60
17986;DHT22;9118;48.122;11.546;2023-04-06T15:01:52;12.60;81.80
17986;DHT22;9118;48.122;11.546;2023-04-06T15:04:30;12.60;96.80
17986;DHT22;9118;48.122;11.546;2023-04-06T15:06:57;13.70;91.20
17986;DHT22;9118;48.122;11.546;2023-04-06T15:09:25;13.90;90.00
17986;DHT22;9118;48.122;11.546;2023-04-06T15:11:52;13.80;84.90
17986;DHT22;9118;48.122;11.546;2023-04-06T15:14:22;13.90;79.00
17986;DHT22;9118;48.122;11.546;2023-04-06T15:17:00;13.00;77.50
17986;DHT22;9118;48.122;11.546;2023-04-06T15:19:29;13.90;93.10
17986;DHT22;9118;48.122;11.546;2023-04-06T15:22:10;15.90;70.60
17986;DHT22;9118;48.122;11.546;2023-04-06T15:24:38;17.20;66.20
17986;DHT22;9118;48.122;11.546;2023-04-06T15:27:05;16.70;65.90
17986;DHT22;9118;48.122;11.546;2023-04-06T15:29:32;17.40;66.40
17986;DHT22;9118;48.122;11.546;2023-04-06T15:32:02;18.30;63.80
17986;DHT22;9118;48.122;11.546;2023-04-06T15:34:43;17.50;64.30
17986;DHT22;9118;48.122;11.546;2023-04-06T15:37:11;16.30;64.80
17986;DHT22;9118;48.122;11.546;2023-04-06T15:39:52;14.60;66.70
17986;DHT22;9118;48.122;11.546;2023-04-06T15:42:24;13.80;71.80
17986;DHT22;9118;48.122;11.546;2023-04-06T15:44:57;15.90;69.10
17986;DHT22;9118;48.122;11.546;2023-04-06T15:47:29;18.10;63.80
17986;DHT22;9118;48.122;11.546;2023-04-06T15:49:59;20.30;57.50
17986;DHT22;9118;48.122;11.546;2023-04-06T15:52:37;20.70;59.50
17986;DHT22;9118;48.122;11.546;2023-04-06T15:55:11;21.30;55.20
17986;DHT22;9118;48.122;11.546;2023-04-06T15:57:52;22.50;60.70
17986;DHT22;9118;48.122;11.546;2023-04-06T16:00:34;18.30;59.80